Time;durP1;ratioP1;P1;durP2;ratioP2;P2;SDS_P1;SDS_P2;PMS_P1;PMS_P2;Temp;Humidity;BMP_temperature;BMP_pressure;BME280_temperature;BME280_humidity;BME280_pressure;Samples;Min_cycle;Max_cycle;Signal;HPM_P1;HPM_P2
2023/06/18 00:02:15;;;;;;;18.95;15.15;;;;;;;25.50;47.99;100997.38;4976008;28;20058;-84
2023/06/18 00:04:42;;;;;;;19.25;15.50;;;;;;;25.66;48.05;101021.25;4995285;28;20299;-83
2023/06/18 00:07:09;;;;;;;16.63;14.77;;;;;;;25.64;48.03;101012.50;4995068;28;20053;-82
2023/06/18 00:09:36;;;;;;;18.77;15.68;;;;;;;25.07;47.71;100903.13;4975632;28;20050;-82
2023/06/18 00:12:04;;;;;;;17.40;14.45;;;;;;;25.11;48.14;100931.50;4959917;28;20060;-82
2023/06/18 00:14:31;;;;;;;19.90;14.77;;;;;;;25.34;48.20;100967.03;4982327;28;20038;-82
2023/06/18 00:16:59;;;;;;;17.55;14.13;;;;;;;25.42;48.16;100974.06;4977975;28;20046;-82
2023/06/18 00:19:32;;;;;;;20.95;14.48;;;;;;;24.99;48.21;100906.16;4985879;28;20066;-83
2023/06/18 00:22:05;;;;;;;17.63;14.93;;;;;;;25.63;48.18;101013.53;4973409;28;20054;-84
2023/06/18 00:24:32;;;;;;;17.20;13.95;;;;;;;25.61;47.90;100983.06;4969962;28;20663;-82
2023/06/18 00:27:05;;;;;;;19.20;13.77;;;;;;;24.95;47.68;100898.47;4982453;28;20133;-82
2023/06/18 00:29:32;;;;;;;18.85;13.57;;;;;;;25.28;48.46;100965.22;4981855;28;20050;-82
2023/06/18 00:32:04;;;;;;;20.92;14.43;;;;;;;25.49;48.02;100990.31;4964163;28;20289;-84
2023/06/18 00:34:35;;;;;;;15.10;13.38;;;;;;;25.41;48.32;100999.56;4955021;28;20050;-82
2023/06/18 00:37:09;;;;;;;19.25;13.35;;;;;;;25.23;48.52;100989.50;4987643;28;20046;-83
2023/06/18 00:39:37;;;;;;;19.02;14.40;;;;;;;25.18;49.26;101011.09;4971092;28;20048;-83
2023/06/18 00:42:07;;;;;;;19.38;13.77;;;;;;;25.03;49.08;100997.00;4987947;28;20137;-82
2023/06/18 00:44:35;;;;;;;16.73;14.93;;;;;;;24.64;49.05;100912.94;4998871;28;20050;-83
2023/06/18 00:47:06;;;;;;;20.02;13.13;;;;;;;25.18;49.00;101005.66;5002934;28;20053;-82
2023/06/18 00:49:36;;;;;;;17.45;14.20;;;;;;;24.97;49.14;100976.16;5007291;28;20049;-83
2023/06/18 00:52:05;;;;;;;17.10;14.63;;;;;;;25.04;49.34;101009.50;5000665;28;20146;-82
2023/06/18 00:54:35;;;;;;;17.38;13.68;;;;;;;24.93;49.47;100994.78;4990420;28;20046;-82
2023/06/18 00:57:08;;;;;;;20.17;14.00;;;;;;;24.94;49.58;101008.13;4988783;28;20084;-84
2023/06/18 00:59:37;;;;;;;18.80;13.77;;;;;;;24.69;49.97;100970.13;4985190;28;20049;-82
2023/06/18 01:02:08;;;;;;;17.40;14.07;;;;;;;24.64;50.45;100977.25;5005820;28;20144;-82
2023/06/18 01:04:39;;;;;;;19.48;14.60;;;;;;;24.76;50.84;101020.78;4993268;28;20313;-82
2023/06/18 01:07:13;;;;;;;16.95;13.52;;;;;;;24.75;51.08;101030.81;5009773;28;20630;-82
2023/06/18 01:09:53;;;;;;;23.73;14.73;;;;;;;24.62;51.32;101022.78;5003635;28;20321;-83
2023/06/18 01:12:31;;;;;;;22.45;15.18;;;;;;;24.57;51.80;101014.47;5004735;28;20997;-82
2023/06/18 01:15:00;;;;;;;17.05;14.48;;;;;;;24.52;51.98;101018.66;5006851;28;20057;-82
2023/06/18 01:17:33;;;;;;;16.05;13.63;;;;;;;24.41;51.69;100997.63;5006193;28;20050;-82
2023/06/18 01:20:11;;;;;;;19.52;14.98;;;;;;;23.81;51.44;100886.78;5013206;28;20057;-82
2023/06/18 01:22:47;;;;;;;18.38;15.20;;;;;;;24.68;51.42;101024.59;5018238;28;20049;-84
2023/06/18 01:25:18;;;;;;;21.88;14.15;;;;;;;24.78;50.90;101026.84;5009487;28;20131;-81
2023/06/18 01:27:50;;;;;;;15.90;13.75;;;;;;;24.65;50.70;101003.34;5002787;28;20119;-82
2023/06/18 01:30:23;;;;;;;18.25;14.80;;;;;;;24.64;51.07;101034.25;5000767;28;20078;-82
2023/06/18 01:32:56;;;;;;;20.23;15.20;;;;;;;24.51;51.09;101011.56;4961289;28;20610;-82
2023/06/18 01:35:27;;;;;;;17.10;14.77;;;;;;;24.65;51.15;101023.16;4963360;28;20050;-82
2023/06/18 01:38:12;;;;;;;19.20;14.73;;;;;;;24.68;51.44;101032.75;4995282;28;20507;-81
2023/06/18 01:40:48;;;;;;;17.58;14.50;;;;;;;24.62;51.09;101003.78;5004594;28;20089;-81
2023/06/18 01:43:38;;;;;;;21.55;15.52;;;;;;;24.18;51.50;100957.50;4992723;28;20045;-80
2023/06/18 01:46:08;;;;;;;19.95;14.95;;;;;;;24.46;52.08;101027.66;4970278;28;20050;-81
2023/06/18 01:48:41;;;;;;;20.83;15.05;;;;;;;24.48;52.01;101036.44;4978884;28;20476;-83
2023/06/18 01:51:17;;;;;;;16.80;14.95;;;;;;;24.46;52.30;101024.97;4986135;28;20519;-82
2023/06/18 01:53:45;;;;;;;17.80;14.60;;;;;;;24.30;52.50;101026.28;4966812;28;20456;-82
2023/06/18 01:56:13;;;;;;;18.30;16.40;;;;;;;24.29;52.45;101031.91;4969925;28;20075;-80
2023/06/18 01:58:46;;;;;;;21.67;14.10;;;;;;;24.27;52.68;101031.28;4969527;28;20246;-81
2023/06/18 02:01:26;;;;;;;18.83;15.43;;;;;;;24.03;53.34;101028.28;4958419;28;20672;-81
2023/06/18 02:03:54;;;;;;;19.25;14.90;;;;;;;23.54;53.60;100980.03;5000202;28;20575;-80
2023/06/18 02:06:21;;;;;;;18.40;14.77;;;;;;;23.49;53.79;100986.09;4990287;28;20501;-81
2023/06/18 02:08:50;;;;;;;16.45;14.65;;;;;;;23.30;53.96;100959.88;4982096;28;20054;-82
2023/06/18 02:11:17;;;;;;;18.50;14.57;;;;;;;23.83;54.11;101041.06;4973676;28;20046;-82
2023/06/18 02:13:44;;;;;;;20.15;14.55;;;;;;;23.74;54.31;101039.63;4966176;28;20284;-81
2023/06/18 02:16:11;;;;;;;17.80;14.88;;;;;;;23.54;54.01;100994.41;4959344;28;20052;-83
2023/06/18 02:18:38;;;;;;;18.80;14.70;;;;;;;23.45;54.45;101001.97;4971033;28;20070;-82
2023/06/18 02:21:12;;;;;;;17.92;15.98;;;;;;;23.67;54.98;101054.03;4958311;28;20477;-83
2023/06/18 02:23:43;;;;;;;19.75;14.57;;;;;;;23.62;54.77;101045.69;4963290;28;20091;-81
2023/06/18 02:26:10;;;;;;;21.10;15.73;;;;;;;23.55;55.29;101055.72;4966911;28;20666;-82
2023/06/18 02:28:37;;;;;;;25.58;16.65;;;;;;;23.55;55.31;101055.72;4970591;28;20077;-80
2023/06/18 02:31:06;;;;;;;19.10;15.27;;;;;;;23.42;55.43;101063.84;4964074;28;20577;-82
2023/06/18 02:33:38;;;;;;;25.65;16.98;;;;;;;23.37;55.51;101036.56;4964983;28;20446;-83
2023/06/18 02:36:05;;;;;;;21.77;15.40;;;;;;;23.64;55.03;101054.47;4963793;28;20057;-81
2023/06/18 02:38:32;;;;;;;21.63;14.90;;;;;;;23.56;55.33;101051.94;4954624;28;20080;-83
2023/06/18 02:41:00;;;;;;;19.55;14.98;;;;;;;23.54;55.14;101053.22;4956497;28;20433;-81
2023/06/18 02:43:31;;;;;;;16.60;13.52;;;;;;;23.45;54.05;101034.47;4961523;28;20042;-81
2023/06/18 02:46:00;;;;;;;16.05;14.07;;;;;;;23.59;54.19;101056.13;4996498;28;20049;-81
2023/06/18 02:48:31;;;;;;;20.63;14.52;;;;;;;23.46;54.06;101021.75;4975836;28;20269;-82
2023/06/18 02:51:02;;;;;;;17.33;14.15;;;;;;;23.77;53.79;101060.91;4957997;28;20236;-82
2023/06/18 02:53:35;;;;;;;20.15;15.05;;;;;;;23.78;53.98;101065.28;4980495;28;20042;-83
2023/06/18 02:56:11;;;;;;;21.55;15.35;;;;;;;23.83;53.93;101062.75;4963317;28;20048;-82
2023/06/18 02:58:55;;;;;;;21.98;15.43;;;;;;;23.67;54.60;101034.22;4986032;28;20699;-81
2023/06/18 03:01:31;;;;;;;22.00;15.00;;;;;;;23.65;54.31;101028.19;4971996;28;20595;-82
2023/06/18 03:04:10;;;;;;;19.73;15.13;;;;;;;23.65;54.85;101056.09;4967295;28;20311;-82
2023/06/18 03:06:42;;;;;;;17.98;15.90;;;;;;;23.13;55.19;100984.72;4958312;28;20288;-79
2023/06/18 03:09:09;;;;;;;21.48;15.75;;;;;;;23.57;55.55;101060.91;4979937;28;20548;-81
2023/06/18 03:11:42;;;;;;;23.05;16.02;;;;;;;23.53;55.53;101056.97;4963937;28;20256;-82
2023/06/18 03:14:20;;;;;;;22.00;15.55;;;;;;;23.48;55.79;101060.31;4955427;28;20662;-82
2023/06/18 03:16:46;;;;;;;24.13;15.80;;;;;;;23.37;56.19;101052.81;4950215;28;20050;-82
2023/06/18 03:19:13;;;;;;;21.13;15.65;;;;;;;23.31;56.40;101042.84;4970301;28;20075;-82
2023/06/18 03:21:42;;;;;;;20.55;15.43;;;;;;;23.46;55.98;101059.69;4976552;28;20057;-82
2023/06/18 03:24:10;;;;;;;20.55;16.23;;;;;;;23.12;56.18;101012.84;4975166;28;20049;-80
2023/06/18 03:26:43;;;;;;;20.20;16.05;;;;;;;23.22;55.96;101017.81;4979309;28;20057;-82
2023/06/18 03:29:15;;;;;;;21.35;16.20;;;;;;;23.27;56.12;101058.66;4968704;28;20367;-81
2023/06/18 03:31:50;;;;;;;23.83;15.27;;;;;;;23.31;56.42;101064.50;4978465;28;20264;-82
2023/06/18 03:34:20;;;;;;;17.13;15.23;;;;;;;23.28;56.30;101067.59;4982284;28;20505;-81
2023/06/18 03:36:50;;;;;;;19.58;15.88;;;;;;;23.21;56.77;101065.75;4982665;28;20046;-82
2023/06/18 03:39:22;;;;;;;21.00;15.85;;;;;;;23.23;56.71;101082.63;4950584;28;20315;-82
2023/06/18 03:41:49;;;;;;;23.17;15.90;;;;;;;23.20;56.90;101079.50;4962641;28;20184;-81
2023/06/18 03:44:19;;;;;;;20.30;16.13;;;;;;;23.10;57.29;101069.06;4962935;28;20296;-82
2023/06/18 03:46:50;;;;;;;21.90;17.25;;;;;;;22.66;57.76;101002.78;4973643;28;20537;-82
2023/06/18 03:49:17;;;;;;;19.17;15.50;;;;;;;23.11;57.90;101070.75;4978199;28;20426;-81
2023/06/18 03:51:49;;;;;;;21.55;15.85;;;;;;;23.14;57.79;101073.03;4978337;28;20116;-81
2023/06/18 03:54:26;;;;;;;21.33;15.68;;;;;;;23.16;58.39;101086.38;4976023;28;20420;-82
2023/06/18 03:56:54;;;;;;;19.63;15.73;;;;;;;23.14;58.22;101083.03;4967455;28;20049;-82
2023/06/18 03:59:21;;;;;;;18.42;15.38;;;;;;;22.89;57.84;101025.91;4971045;28;20072;-82
2023/06/18 04:01:51;;;;;;;21.48;16.42;;;;;;;23.19;57.75;101070.53;4968425;28;20052;-81
2023/06/18 04:04:20;;;;;;;20.25;14.70;;;;;;;23.16;58.27;101057.41;4974400;28;20119;-82
2023/06/18 04:06:47;;;;;;;21.05;16.48;;;;;;;23.23;58.07;101071.78;4968695;28;20498;-81
2023/06/18 04:09:14;;;;;;;24.10;15.50;;;;;;;22.86;58.00;101012.81;4962330;28;20053;-80
2023/06/18 04:11:42;;;;;;;19.30;14.77;;;;;;;22.97;58.08;101034.66;4973688;28;20274;-82
2023/06/18 04:14:09;;;;;;;22.50;15.73;;;;;;;23.18;56.98;101077.00;4956181;28;20634;-81
2023/06/18 04:16:45;;;;;;;17.45;15.07;;;;;;;22.92;56.66;101060.72;4972452;28;20053;-82
2023/06/18 04:19:15;;;;;;;19.02;14.30;;;;;;;23.11;56.41;101095.13;4982422;28;20384;-81
2023/06/18 04:21:42;;;;;;;19.25;13.20;;;;;;;23.13;57.04;101095.75;5007375;28;20062;-82
2023/06/18 04:24:12;;;;;;;16.70;14.43;;;;;;;23.00;57.07;101061.34;4988952;28;20118;-82
2023/06/18 04:26:39;;;;;;;19.55;14.75;;;;;;;23.30;56.89;101074.47;5009176;28;20056;-82
2023/06/18 04:29:08;;;;;;;19.20;15.55;;;;;;;23.11;57.42;101054.50;5014575;28;20049;-82
2023/06/18 04:31:35;;;;;;;24.80;16.35;;;;;;;23.16;57.40;101064.72;5015720;28;20049;-83
2023/06/18 04:34:02;;;;;;;19.67;16.15;;;;;;;23.33;56.17;101073.25;4998368;28;20473;-82
2023/06/18 04:36:28;;;;;;;20.92;15.93;;;;;;;23.41;56.96;101087.41;4996995;28;20052;-82
2023/06/18 04:38:55;;;;;;;19.42;15.63;;;;;;;23.39;56.80;101088.66;5005220;28;20318;-83
2023/06/18 04:41:22;;;;;;;18.77;14.63;;;;;;;23.45;55.62;101087.84;5023479;28;20215;-82
2023/06/18 04:43:53;;;;;;;15.93;13.63;;;;;;;23.50;54.60;101104.28;4997978;28;20073;-81
2023/06/18 04:46:23;;;;;;;17.35;14.15;;;;;;;23.23;53.78;101050.13;4984937;28;20420;-82
2023/06/18 04:48:53;;;;;;;15.73;12.73;;;;;;;23.70;52.81;101106.16;4979370;28;20268;-81
2023/06/18 04:51:20;;;;;;;17.42;13.55;;;;;;;23.72;52.82;101098.63;4987692;28;20857;-80
2023/06/18 04:53:46;;;;;;;15.35;12.15;;;;;;;23.57;52.09;101067.19;4986542;28;20056;-81
2023/06/18 04:56:18;;;;;;;16.15;12.90;;;;;;;23.93;51.34;101101.09;4975175;28;20053;-82
2023/06/18 04:58:47;;;;;;;16.38;14.27;;;;;;;23.82;51.34;101083.63;4932113;28;20383;-81
2023/06/18 05:01:20;;;;;;;15.23;12.45;;;;;;;23.86;51.50;101111.13;4981666;28;20046;-82
2023/06/18 05:03:47;;;;;;;19.42;13.40;;;;;;;23.64;51.82;101065.28;4976392;28;20055;-81
2023/06/18 05:06:13;;;;;;;18.63;12.95;;;;;;;23.98;51.41;101116.75;4997330;28;20050;-81
2023/06/18 05:08:40;;;;;;;16.02;13.15;;;;;;;24.07;50.87;101112.75;4959561;28;20214;-82
2023/06/18 05:11:07;;;;;;;20.15;14.07;;;;;;;23.89;50.80;101089.03;4969207;28;20383;-82
2023/06/18 05:13:35;;;;;;;17.63;13.10;;;;;;;23.91;51.00;101081.53;4970075;28;20482;-83
2023/06/18 05:16:02;;;;;;;24.42;13.35;;;;;;;23.97;50.78;101077.94;4985713;28;20559;-82
2023/06/18 05:18:28;;;;;;;21.20;13.38;;;;;;;24.26;50.38;101116.44;5021176;28;20396;-83
2023/06/18 05:20:55;;;;;;;19.85;13.52;;;;;;;24.23;50.83;101116.88;4969343;28;20453;-83
2023/06/18 05:23:22;;;;;;;18.35;14.23;;;;;;;24.32;50.38;101126.44;4985354;28;20380;-82
2023/06/18 05:25:53;;;;;;;15.77;13.13;;;;;;;24.32;50.50;101112.88;4982193;28;20053;-83
2023/06/18 05:28:23;;;;;;;17.30;14.40;;;;;;;24.17;50.80;101082.47;4973988;28;20046;-82
2023/06/18 05:30:55;;;;;;;17.92;13.15;;;;;;;24.21;51.38;101094.56;4922027;28;20149;-83
2023/06/18 05:33:25;;;;;;;17.55;13.55;;;;;;;24.32;52.01;101115.56;4964214;28;20379;-82
2023/06/18 05:36:00;;;;;;;19.63;14.93;;;;;;;24.14;51.54;101080.19;4996451;28;20077;-83
2023/06/18 05:38:30;;;;;;;16.75;14.35;;;;;;;24.50;51.70;101123.06;4987970;28;20528;-83
2023/06/18 05:40:57;;;;;;;18.55;13.18;;;;;;;24.53;52.03;101118.03;4991980;28;20117;-82
2023/06/18 05:43:28;;;;;;;19.20;13.85;;;;;;;24.41;51.25;101098.00;4993899;28;20042;-82
2023/06/18 05:45:55;;;;;;;24.40;15.13;;;;;;;24.36;51.34;101072.59;4942348;28;20137;-81
2023/06/18 05:48:23;;;;;;;21.48;15.02;;;;;;;24.71;51.38;101113.75;4925830;28;20042;-81
2023/06/18 05:50:50;;;;;;;21.08;14.85;;;;;;;24.83;51.50;101122.91;4963792;28;20221;-82
2023/06/18 05:53:20;;;;;;;18.50;14.00;;;;;;;24.61;50.73;101089.78;4969378;28;20057;-84
2023/06/18 05:55:52;;;;;;;18.88;14.77;;;;;;;24.70;50.59;101095.81;4957955;28;20385;-83
2023/06/18 05:58:24;;;;;;;15.90;12.93;;;;;;;24.57;51.04;101085.88;4943887;28;20445;-83
2023/06/18 06:00:58;;;;;;;24.92;13.25;;;;;;;24.90;51.01;101123.69;4937864;28;20297;-83
2023/06/18 06:03:26;;;;;;;18.85;13.65;;;;;;;24.95;50.74;101126.56;4952459;28;20272;-82
2023/06/18 06:06:02;;;;;;;17.95;13.98;;;;;;;24.98;50.69;101113.59;4957796;28;20401;-83
2023/06/18 06:08:42;;;;;;;17.55;13.38;;;;;;;24.85;51.25;101093.63;4925949;28;20046;-85
2023/06/18 06:11:09;;;;;;;17.23;13.90;;;;;;;24.94;50.53;101097.75;4987159;28;20053;-82
2023/06/18 06:13:37;;;;;;;17.98;14.13;;;;;;;24.31;49.32;100992.66;5003743;28;20122;-84
2023/06/18 06:16:04;;;;;;;14.10;12.52;;;;;;;25.43;48.48;101137.94;4951564;28;20057;-83
2023/06/18 06:18:31;;;;;;;15.93;13.07;;;;;;;25.42;48.03;101125.44;4998608;28;20332;-83
2023/06/18 06:20:57;;;;;;;16.55;12.48;;;;;;;25.47;47.66;101139.19;4962051;28;20053;-84
2023/06/18 06:23:30;;;;;;;16.52;12.40;;;;;;;25.48;47.41;101129.97;4978950;28;20053;-84
2023/06/18 06:25:57;;;;;;;16.52;13.07;;;;;;;25.46;47.78;101124.75;4994302;28;20342;-82
2023/06/18 06:28:30;;;;;;;17.05;13.07;;;;;;;25.50;47.67;101125.13;4955873;28;20058;-83
2023/06/18 06:31:05;;;;;;;17.83;13.38;;;;;;;25.60;48.30;101141.78;4951363;28;20056;-83
2023/06/18 06:33:37;;;;;;;16.17;13.88;;;;;;;25.69;47.45;101147.78;4945128;28;20049;-84
2023/06/18 06:36:09;;;;;;;15.13;12.70;;;;;;;25.58;48.10;101117.53;4944280;28;20053;-82
2023/06/18 06:38:39;;;;;;;16.27;12.73;;;;;;;25.67;47.78;101137.09;4987767;28;20046;-83
2023/06/18 06:41:06;;;;;;;17.40;14.90;;;;;;;25.74;48.10;101154.19;4997636;28;20045;-85
2023/06/18 06:43:34;;;;;;;21.85;13.68;;;;;;;25.78;47.39;101157.31;4991954;28;20497;-83
2023/06/18 06:46:01;;;;;;;19.48;14.55;;;;;;;25.83;47.73;101152.03;4974949;28;20050;-83
2023/06/18 06:48:32;;;;;;;14.85;13.07;;;;;;;25.89;47.55;101150.31;4974464;28;20054;-84
2023/06/18 06:50:59;;;;;;;17.00;14.18;;;;;;;25.99;47.47;101153.34;4976179;28;20048;-83
2023/06/18 06:53:26;;;;;;;22.33;14.10;;;;;;;26.08;47.71;101152.00;4987928;28;20200;-84
2023/06/18 06:55:53;;;;;;;14.27;12.77;;;;;;;25.87;46.46;101128.78;4983454;28;20045;-83
2023/06/18 06:58:20;;;;;;;22.80;13.43;;;;;;;25.34;46.00;101032.25;4980916;28;20301;-85
2023/06/18 07:00:47;;;;;;;14.13;12.43;;;;;;;26.17;46.01;101161.53;4997916;28;20144;-84
2023/06/18 07:03:14;;;;;;;17.40;14.07;;;;;;;26.31;46.14;101164.09;4996612;28;20057;-83
2023/06/18 07:05:51;;;;;;;17.50;13.45;;;;;;;26.34;46.24;101166.38;4932408;28;20054;-85
2023/06/18 07:08:25;;;;;;;16.95;13.27;;;;;;;26.36;45.23;101167.81;4939812;28;20348;-83
2023/06/18 07:10:53;;;;;;;18.33;12.63;;;;;;;26.10;45.18;101130.84;4954467;28;20147;-84
2023/06/18 07:13:22;;;;;;;15.93;13.32;;;;;;;25.64;46.14;101047.03;4970281;28;20459;-82
2023/06/18 07:15:58;;;;;;;16.38;14.10;;;;;;;26.43;45.39;101151.38;4972678;28;20054;-85
2023/06/18 07:18:25;;;;;;;15.18;12.20;;;;;;;26.54;45.06;101166.16;4950165;28;20120;-83
2023/06/18 07:20:52;;;;;;;15.07;13.30;;;;;;;26.27;44.22;101116.63;4990141;28;20050;-84
2023/06/18 07:23:22;;;;;;;17.30;13.75;;;;;;;26.63;45.62;101176.50;4993622;28;20245;-84
2023/06/18 07:25:51;;;;;;;18.15;13.52;;;;;;;26.44;44.50;101134.00;4993358;28;20431;-84
2023/06/18 07:28:18;;;;;;;15.35;12.68;;;;;;;25.36;44.55;100958.66;5004197;28;20421;-84
2023/06/18 07:30:45;;;;;;;19.77;13.18;;;;;;;26.70;44.43;101160.09;5026138;28;20239;-84
2023/06/18 07:33:12;;;;;;;19.77;13.68;;;;;;;26.53;45.15;101127.22;5039418;28;20029;-84
2023/06/18 07:35:39;;;;;;;23.48;12.80;;;;;;;26.88;45.54;101167.38;5002553;28;20280;-85
2023/06/18 07:38:18;;;;;;;16.15;12.48;;;;;;;26.77;44.80;101132.75;5009028;28;20516;-85
2023/06/18 07:40:48;;;;;;;15.93;12.45;;;;;;;27.06;44.24;101170.06;4982785;28;20379;-84
2023/06/18 07:43:15;;;;;;;18.35;13.50;;;;;;;27.21;43.68;101166.94;4985721;28;20037;-84
2023/06/18 07:45:43;;;;;;;15.27;13.25;;;;;;;26.75;43.95;101091.28;4993434;28;20069;-84
2023/06/18 07:48:13;;;;;;;17.70;12.27;;;;;;;27.01;43.18;101118.13;4986231;28;20221;-82
2023/06/18 07:50:40;;;;;;;14.25;12.75;;;;;;;27.19;43.27;101162.78;4972874;28;20042;-77
2023/06/18 07:53:10;;;;;;;14.87;13.00;;;;;;;26.77;43.90;101089.16;4991280;28;20045;-83
2023/06/18 07:55:44;;;;;;;15.23;12.80;;;;;;;27.21;43.11;101147.00;5007780;28;20283;-84
2023/06/18 07:58:12;;;;;;;17.98;13.77;;;;;;;27.22;43.66;101135.88;5022185;28;20610;-84
2023/06/18 08:00:44;;;;;;;18.15;13.52;;;;;;;26.99;43.73;101070.38;4997019;28;20420;-81
2023/06/18 08:03:15;;;;;;;18.73;13.33;;;;;;;27.47;43.80;101149.28;4976476;28;20103;-81
2023/06/18 08:05:45;;;;;;;17.15;13.90;;;;;;;27.37;43.45;101129.97;4963172;28;20688;-82
2023/06/18 08:08:13;;;;;;;15.27;12.93;;;;;;;27.54;44.39;101148.38;4964049;28;20053;-83
2023/06/18 08:10:43;;;;;;;17.10;13.70;;;;;;;27.43;43.96;101145.41;4992976;28;20060;-80
2023/06/18 08:13:10;;;;;;;16.52;11.95;;;;;;;27.36;43.41;101135.69;4982782;28;20481;-82
2023/06/18 08:15:40;;;;;;;18.08;13.10;;;;;;;26.92;44.42;101053.31;4983981;28;20046;-83
2023/06/18 08:18:11;;;;;;;16.23;13.10;;;;;;;27.71;43.13;101166.50;4992316;28;20057;-83
2023/06/18 08:20:40;;;;;;;17.25;13.00;;;;;;;27.70;43.40;101169.50;4992024;28;20056;-82
2023/06/18 08:23:11;;;;;;;18.30;13.73;;;;;;;27.05;43.72;101051.22;4979202;28;20049;-83
2023/06/18 08:25:37;;;;;;;16.23;13.20;;;;;;;27.73;43.14;101154.53;4984686;28;20073;-83
2023/06/18 08:28:05;;;;;;;19.27;13.27;;;;;;;27.35;42.33;101077.56;5008787;28;20054;-83
2023/06/18 08:30:35;;;;;;;18.63;13.55;;;;;;;27.65;42.22;101125.75;4999853;28;20481;-81
2023/06/18 08:33:10;;;;;;;17.80;13.27;;;;;;;27.90;43.32;101169.97;5005503;28;20772;-82
2023/06/18 08:35:39;;;;;;;18.38;13.55;;;;;;;26.70;42.89;100968.63;4988719;28;20080;-83
2023/06/18 08:38:06;;;;;;;17.70;13.50;;;;;;;27.78;43.23;101136.38;4997759;28;20348;-83
2023/06/18 08:40:50;;;;;;;14.32;12.77;;;;;;;28.00;42.93;101168.56;4988689;28;20057;-83
2023/06/18 08:43:26;;;;;;;16.40;13.65;;;;;;;27.76;43.76;101124.88;4987850;28;20140;-84
2023/06/18 08:45:54;;;;;;;16.95;13.50;;;;;;;27.00;43.78;100985.72;4985379;28;20057;-82
2023/06/18 08:48:27;;;;;;;20.48;14.68;;;;;;;28.08;43.10;101158.09;4989425;28;20098;-84
2023/06/18 08:51:05;;;;;;;15.13;13.20;;;;;;;28.04;43.44;101148.75;4987383;28;20253;-82
2023/06/18 08:53:41;;;;;;;17.95;13.45;;;;;;;27.85;43.52;101111.75;4997194;28;20433;-81
2023/06/18 08:56:09;;;;;;;20.75;14.77;;;;;;;28.06;42.50;101145.75;5000456;28;20054;-82
2023/06/18 08:58:43;;;;;;;19.45;13.32;;;;;;;28.18;42.29;101162.97;5004630;28;20053;-82
2023/06/18 09:01:12;;;;;;;18.40;13.98;;;;;;;28.08;42.36;101138.16;4998285;28;20120;-84
2023/06/18 09:03:43;;;;;;;17.45;14.07;;;;;;;28.33;42.30;101168.75;4998589;28;20085;-83
2023/06/18 09:06:12;;;;;;;16.95;12.88;;;;;;;28.11;42.09;101119.41;4980745;28;20104;-83
2023/06/18 09:08:39;;;;;;;20.08;13.68;;;;;;;28.40;42.03;101173.22;4981219;28;20045;-83
2023/06/18 09:11:06;;;;;;;17.35;12.90;;;;;;;28.31;42.20;101129.94;4983164;28;20053;-82
2023/06/18 09:13:42;;;;;;;14.85;12.88;;;;;;;28.70;41.36;101164.88;4982064;28;20049;-84
2023/06/18 09:16:13;;;;;;;16.92;13.38;;;;;;;28.53;41.38;101107.44;5007474;28;20453;-83
2023/06/18 09:18:40;;;;;;;19.05;15.50;;;;;;;28.41;41.07;101087.53;5001008;28;20059;-83
2023/06/18 09:21:07;;;;;;;16.58;12.60;;;;;;;28.80;40.70;101161.50;4997224;28;20053;-84
2023/06/18 09:23:38;;;;;;;18.38;14.40;;;;;;;28.82;41.12;101159.34;4994612;28;20481;-81
2023/06/18 09:26:04;;;;;;;17.83;12.80;;;;;;;28.75;41.33;101152.13;4999582;28;20277;-82
2023/06/18 09:28:31;;;;;;;20.50;14.15;;;;;;;28.92;40.98;101168.56;4994653;28;20506;-84
2023/06/18 09:31:01;;;;;;;20.35;13.88;;;;;;;29.00;41.03;101177.44;4995433;28;20134;-83
2023/06/18 09:33:33;;;;;;;16.38;12.90;;;;;;;28.99;40.39;101162.94;4992937;28;20413;-84
2023/06/18 09:36:06;;;;;;;19.35;14.20;;;;;;;29.14;40.13;101146.84;4998729;28;20053;-83
2023/06/18 09:38:37;;;;;;;19.05;14.38;;;;;;;28.69;39.72;101041.13;4998994;28;20056;-83
2023/06/18 09:41:18;;;;;;;20.55;13.63;;;;;;;29.24;39.36;101145.38;4974515;28;20293;-83
2023/06/18 09:43:54;;;;;;;21.25;13.85;;;;;;;29.44;39.62;101174.94;4963441;28;20524;-83
2023/06/18 09:46:32;;;;;;;17.65;15.00;;;;;;;29.50;39.52;101172.06;4960123;28;20494;-83
2023/06/18 09:49:00;;;;;;;17.85;15.52;;;;;;;29.11;39.35;101113.72;4953586;28;20081;-83
2023/06/18 09:51:27;;;;;;;16.08;13.57;;;;;;;29.47;39.42;101150.69;4979186;28;20457;-82
2023/06/18 09:53:59;;;;;;;16.77;14.40;;;;;;;29.08;39.37;101065.84;4994268;28;20393;-82
2023/06/18 09:56:33;;;;;;;20.58;13.65;;;;;;;29.59;38.83;101162.38;5002237;28;20492;-83
2023/06/18 09:59:03;;;;;;;17.73;14.15;;;;;;;29.54;38.59;101162.28;4997402;28;20059;-81
2023/06/18 10:01:47;;;;;;;16.33;14.65;;;;;;;29.68;38.47;101167.44;4993926;28;20065;-82
2023/06/18 10:04:16;;;;;;;19.45;15.13;;;;;;;29.88;39.49;101189.66;4973411;28;20056;-83
2023/06/18 10:07:13;;;;;;;15.82;14.15;;;;;;;29.81;37.92;101176.13;4964125;28;20085;-83
2023/06/18 10:09:55;;;;;;;17.90;14.73;;;;;;;29.61;38.83;101132.00;4945097;28;20490;-81
2023/06/18 10:12:22;;;;;;;21.20;14.10;;;;;;;29.85;38.64;101151.81;4976566;28;20556;-83
2023/06/18 10:14:55;;;;;;;21.02;14.63;;;;;;;30.36;37.68;101179.09;4974370;28;20744;-83
2023/06/18 10:17:25;;;;;;;18.02;13.13;;;;;;;30.43;37.64;101169.59;4978311;28;20098;-83
2023/06/18 10:20:05;;;;;;;15.52;13.55;;;;;;;30.10;37.95;101109.44;4980422;28;20176;-84
2023/06/18 10:22:44;;;;;;;17.13;13.70;;;;;;;30.03;37.63;101099.53;4982287;28;20709;-83
2023/06/18 10:25:11;;;;;;;20.58;14.95;;;;;;;30.52;38.02;101166.41;4977576;28;20424;-84
2023/06/18 10:27:38;;;;;;;15.23;13.63;;;;;;;30.20;37.20;101098.66;4973542;28;20046;-82
2023/06/18 10:30:09;;;;;;;17.45;14.25;;;;;;;30.18;37.65;101073.44;4974576;28;20060;-82
2023/06/18 10:32:38;;;;;;;17.73;14.27;;;;;;;30.35;36.90;101087.88;4985357;28;20050;-84
2023/06/18 10:35:11;;;;;;;17.77;14.38;;;;;;;30.96;36.93;101167.19;4978765;28;20049;-83
2023/06/18 10:37:43;;;;;;;26.33;15.13;;;;;;;31.06;36.39;101164.56;4978341;28;20080;-83
2023/06/18 10:40:11;;;;;;;22.98;15.10;;;;;;;31.03;36.21;101134.91;4979142;28;20042;-83
2023/06/18 10:42:39;;;;;;;17.27;14.15;;;;;;;31.39;36.64;101159.09;4974415;28;20342;-83
2023/06/18 10:45:10;;;;;;;20.77;14.65;;;;;;;31.45;36.71;101158.06;4982769;28;20584;-82
2023/06/18 10:47:38;;;;;;;18.23;14.93;;;;;;;31.44;35.61;101153.69;4979573;28;20229;-82
2023/06/18 10:50:07;;;;;;;20.85;14.32;;;;;;;31.62;35.55;101158.72;4976008;28;20413;-83
2023/06/18 10:52:46;;;;;;;23.48;15.75;;;;;;;31.78;35.98;101150.63;5001233;28;20053;-83
2023/06/18 10:55:36;;;;;;;18.88;14.45;;;;;;;31.61;35.14;101115.94;4996514;28;20332;-83
2023/06/18 10:58:04;;;;;;;17.02;14.73;;;;;;;31.81;34.86;101145.41;5003104;28;20301;-83
2023/06/18 11:00:41;;;;;;;22.98;14.80;;;;;;;31.69;34.91;101109.94;4996308;28;20073;-83
2023/06/18 11:03:14;;;;;;;17.48;13.90;;;;;;;31.96;34.68;101125.47;4991047;28;20061;-83
2023/06/18 11:05:51;;;;;;;20.83;15.40;;;;;;;32.25;33.60;101114.06;4975569;28;20042;-83
2023/06/18 11:08:33;;;;;;;20.98;14.20;;;;;;;32.56;33.97;101135.09;4982586;28;20053;-84
2023/06/18 11:11:16;;;;;;;16.67;14.88;;;;;;;32.81;32.96;101130.72;4975989;28;20046;-83
2023/06/18 11:13:55;;;;;;;17.88;13.40;;;;;;;33.12;32.86;101128.06;4986720;28;20353;-84
2023/06/18 11:16:23;;;;;;;18.13;14.60;;;;;;;32.61;33.22;101021.59;5003330;28;20056;-84
2023/06/18 11:18:57;;;;;;;16.48;14.73;;;;;;;33.40;32.58;101122.00;4995961;28;20103;-82
2023/06/18 11:21:34;;;;;;;20.77;15.23;;;;;;;33.53;32.03;101119.75;4991236;28;20060;-82
2023/06/18 11:24:11;;;;;;;22.05;15.18;;;;;;;33.47;32.99;101104.34;4955174;28;20566;-83
2023/06/18 11:26:44;;;;;;;21.70;14.88;;;;;;;33.45;32.86;101090.03;4989754;28;20111;-83